Time;durP1;ratioP1;P1;durP2;ratioP2;P2;SDS_P1;SDS_P2;PMS_P1;PMS_P2;Temp;Humidity;BMP_temperature;BMP_pressure;BME280_temperature;BME280_humidity;BME280_pressure;Samples;Min_cycle;Max_cycle;Signal;HPM_P1;HPM_P2
2024/01/06 00:01:16;;;;;;;11.57;9.48;;;;;;;;;;5076013;28;20459;-72
2024/01/06 00:03:43;;;;;;;13.50;11.40;;;;;;;;;;5074503;28;20464;-72
2024/01/06 00:06:12;;;;;;;14.60;12.57;;;;;;;;;;5074644;28;20787;-72
2024/01/06 00:08:38;;;;;;;13.43;10.80;;;;;;;;;;5075886;28;20124;-72
2024/01/06 00:11:04;;;;;;;13.15;10.85;;;;;;;;;;5074565;28;20139;-72
2024/01/06 00:13:30;;;;;;;11.30;10.10;;;;;;;;;;5074199;28;20048;-72
2024/01/06 00:15:56;;;;;;;12.50;11.18;;;;;;;;;;5074111;28;20539;-72
2024/01/06 00:18:22;;;;;;;11.15;9.80;;;;;;;;;;5074205;28;20041;-72
2024/01/06 00:20:48;;;;;;;10.88;9.77;;;;;;;;;;5074161;28;20072;-72
2024/01/06 00:23:14;;;;;;;13.52;11.23;;;;;;;;;;5075538;28;20548;-72
2024/01/06 00:25:40;;;;;;;11.45;10.20;;;;;;;;;;5073213;28;20045;-72
2024/01/06 00:28:06;;;;;;;13.25;11.85;;;;;;;;;;5073969;28;20503;-72
2024/01/06 00:30:32;;;;;;;11.48;10.27;;;;;;;;;;5073965;28;20127;-72
2024/01/06 00:32:58;;;;;;;13.07;11.68;;;;;;;;;;5075368;28;20045;-72
2024/01/06 00:35:24;;;;;;;17.42;14.80;;;;;;;;;;5073845;28;20521;-72
2024/01/06 00:37:50;;;;;;;18.55;15.15;;;;;;;;;;5073741;28;20142;-72
2024/01/06 00:40:18;;;;;;;18.00;14.73;;;;;;;;;;5075313;28;20127;-72
2024/01/06 00:42:44;;;;;;;17.35;15.55;;;;;;;;;;5073873;28;20087;-71
2024/01/06 00:45:10;;;;;;;19.80;15.98;;;;;;;;;;5073641;28;20455;-72
2024/01/06 00:47:36;;;;;;;17.23;15.07;;;;;;;;;;5075134;28;20052;-72
2024/01/06 00:50:02;;;;;;;17.58;14.38;;;;;;;;;;5073567;28;20123;-72
2024/01/06 00:52:28;;;;;;;16.52;14.63;;;;;;;;;;5073532;28;20123;-72
2024/01/06 00:54:54;;;;;;;18.70;14.52;;;;;;;;;;5073392;28;20205;-72
2024/01/06 00:57:23;;;;;;;16.35;14.10;;;;;;;;;;5074551;28;20040;-72
2024/01/06 00:59:50;;;;;;;16.45;13.93;;;;;;;;;;5074850;28;20062;-72
2024/01/06 01:02:16;;;;;;;16.35;14.35;;;;;;;;;;5074531;28;20413;-72
2024/01/06 01:04:42;;;;;;;17.67;14.00;;;;;;;;;;5073188;28;20036;-71
2024/01/06 01:07:08;;;;;;;15.98;14.25;;;;;;;;;;5073197;28;20493;-72
2024/01/06 01:09:35;;;;;;;18.10;15.30;;;;;;;;;;5073199;28;20127;-72
2024/01/06 01:12:01;;;;;;;14.90;13.35;;;;;;;;;;5073359;28;20041;-72
2024/01/06 01:14:27;;;;;;;18.17;15.30;;;;;;;;;;5074515;28;20098;-72
2024/01/06 01:16:53;;;;;;;21.02;16.23;;;;;;;;;;5072960;28;20462;-72
2024/01/06 01:19:19;;;;;;;16.75;14.23;;;;;;;;;;5074208;28;20036;-72
2024/01/06 01:21:45;;;;;;;22.15;15.77;;;;;;;;;;5074427;28;20448;-72
2024/01/06 01:24:11;;;;;;;16.42;14.00;;;;;;;;;;5073383;28;20032;-72
2024/01/06 01:26:37;;;;;;;19.08;14.50;;;;;;;;;;5073044;28;20044;-71
2024/01/06 01:29:03;;;;;;;19.40;14.77;;;;;;;;;;5074332;28;20115;-72
2024/01/06 01:31:29;;;;;;;18.23;14.88;;;;;;;;;;5072763;28;20049;-72
2024/01/06 01:33:55;;;;;;;18.00;14.27;;;;;;;;;;5072642;28;20040;-72
2024/01/06 01:36:21;;;;;;;16.77;13.55;;;;;;;;;;5073803;28;20041;-72
2024/01/06 01:38:47;;;;;;;16.50;13.35;;;;;;;;;;5072612;28;20435;-72
2024/01/06 01:41:13;;;;;;;19.08;14.77;;;;;;;;;;5074130;28;20044;-72
2024/01/06 01:43:39;;;;;;;16.35;13.68;;;;;;;;;;5072708;28;20178;-71
2024/01/06 01:46:05;;;;;;;16.98;14.77;;;;;;;;;;5072477;28;20408;-72
2024/01/06 01:48:34;;;;;;;19.58;15.48;;;;;;;;;;5072786;28;20045;-72
2024/01/06 01:51:00;;;;;;;19.33;14.95;;;;;;;;;;5072357;28;20501;-72
2024/01/06 01:53:26;;;;;;;17.95;15.10;;;;;;;;;;5073433;28;20382;-72
2024/01/06 01:55:53;;;;;;;19.65;15.68;;;;;;;;;;5072533;28;20071;-72
2024/01/06 01:58:19;;;;;;;15.68;13.75;;;;;;;;;;5073797;28;20064;-72
2024/01/06 02:00:45;;;;;;;17.08;14.35;;;;;;;;;;5072220;28;20047;-72
2024/01/06 02:03:11;;;;;;;17.20;14.13;;;;;;;;;;5073448;28;20068;-72
2024/01/06 02:05:37;;;;;;;17.58;13.77;;;;;;;;;;5072183;28;20068;-72
2024/01/06 02:08:03;;;;;;;14.82;12.27;;;;;;;;;;5072121;28;20083;-72
2024/01/06 02:10:29;;;;;;;17.60;13.98;;;;;;;;;;5072395;28;20037;-72
2024/01/06 02:12:55;;;;;;;14.30;12.77;;;;;;;;;;5073523;28;20052;-71
2024/01/06 02:15:21;;;;;;;17.67;11.73;;;;;;;;;;5072037;28;20048;-72
2024/01/06 02:17:47;;;;;;;17.60;13.18;;;;;;;;;;5071935;28;20099;-72
2024/01/06 02:20:15;;;;;;;17.95;13.68;;;;;;;;;;5072246;28;20042;-72
2024/01/06 02:22:40;;;;;;;13.65;11.93;;;;;;;;;;5071883;28;20040;-71
2024/01/06 02:25:12;;;;;;;16.55;12.73;;;;;;;;;;5073445;28;20115;-72
2024/01/06 02:27:39;;;;;;;15.68;12.68;;;;;;;;;;5073465;28;20047;-72
2024/01/06 02:30:05;;;;;;;23.40;13.38;;;;;;;;;;5073407;28;20050;-72
2024/01/06 02:32:31;;;;;;;15.25;12.98;;;;;;;;;;5073289;28;20041;-72
2024/01/06 02:34:57;;;;;;;14.10;11.57;;;;;;;;;;5071828;28;20138;-72
2024/01/06 02:37:23;;;;;;;16.48;12.13;;;;;;;;;;5073220;28;20126;-72
2024/01/06 02:39:49;;;;;;;14.77;11.95;;;;;;;;;;5071761;28;20033;-72
2024/01/06 02:42:15;;;;;;;15.38;12.00;;;;;;;;;;5072932;28;20094;-72
2024/01/06 02:44:41;;;;;;;15.50;10.45;;;;;;;;;;5071696;28;20520;-71
2024/01/06 02:47:07;;;;;;;14.88;11.00;;;;;;;;;;5071715;28;20117;-71
2024/01/06 02:49:33;;;;;;;13.82;10.57;;;;;;;;;;5074137;28;20067;-71
2024/01/06 02:51:59;;;;;;;13.07;10.45;;;;;;;;;;5075852;28;20052;-72
2024/01/06 02:54:25;;;;;;;12.35;10.05;;;;;;;;;;5077239;28;20125;-72
2024/01/06 02:56:51;;;;;;;17.88;12.35;;;;;;;;;;5076833;28;20226;-72
2024/01/06 02:59:17;;;;;;;15.00;11.38;;;;;;;;;;5075684;28;20508;-72
2024/01/06 03:01:43;;;;;;;14.65;11.25;;;;;;;;;;5077133;28;20047;-72
2024/01/06 03:04:09;;;;;;;22.20;13.23;;;;;;;;;;5075361;28;20036;-71
2024/01/06 03:06:36;;;;;;;17.33;13.52;;;;;;;;;;5075794;28;20049;-71
2024/01/06 03:09:02;;;;;;;18.35;13.00;;;;;;;;;;5075761;28;20044;-72
2024/01/06 03:11:28;;;;;;;17.52;13.73;;;;;;;;;;5076945;28;20048;-72
2024/01/06 03:13:54;;;;;;;19.80;14.30;;;;;;;;;;5076546;28;20116;-72
2024/01/06 03:16:20;;;;;;;19.58;15.15;;;;;;;;;;5075292;28;20094;-72
2024/01/06 03:18:46;;;;;;;21.20;14.27;;;;;;;;;;5076808;28;20044;-72
2024/01/06 03:21:21;;;;;;;21.80;15.20;;;;;;;;;;5075518;28;20101;-72
2024/01/06 03:23:50;;;;;;;19.67;15.13;;;;;;;;;;5075098;28;20550;-72
2024/01/06 03:26:17;;;;;;;23.55;15.68;;;;;;;;;;5076390;28;20509;-72
2024/01/06 03:28:43;;;;;;;21.67;15.98;;;;;;;;;;5075070;28;20501;-72
2024/01/06 03:31:10;;;;;;;21.10;15.63;;;;;;;;;;5075123;28;20051;-72
2024/01/06 03:33:36;;;;;;;22.30;15.05;;;;;;;;;;5076164;28;20389;-72
2024/01/06 03:36:06;;;;;;;20.55;15.27;;;;;;;;;;5074883;28;20151;-72
2024/01/06 03:38:32;;;;;;;20.98;15.68;;;;;;;;;;5074900;28;20382;-72
2024/01/06 03:40:58;;;;;;;22.48;15.15;;;;;;;;;;5074877;28;20485;-72
2024/01/06 03:43:24;;;;;;;21.15;15.35;;;;;;;;;;5074760;28;20037;-72
2024/01/06 03:45:50;;;;;;;20.63;15.45;;;;;;;;;;5074837;28;20090;-72
2024/01/06 03:48:16;;;;;;;23.65;16.27;;;;;;;;;;5076293;28;20041;-72
2024/01/06 03:50:42;;;;;;;22.70;15.85;;;;;;;;;;5075898;28;20048;-72
2024/01/06 03:53:08;;;;;;;20.70;14.43;;;;;;;;;;5075057;28;20097;-71
2024/01/06 03:55:34;;;;;;;21.60;14.07;;;;;;;;;;5074633;28;20056;-72
2024/01/06 03:58:00;;;;;;;17.60;13.45;;;;;;;;;;5076014;28;20051;-72
2024/01/06 04:00:26;;;;;;;18.10;13.88;;;;;;;;;;5074424;28;20110;-72
2024/01/06 04:02:52;;;;;;;20.50;14.95;;;;;;;;;;5074332;28;20072;-72
2024/01/06 04:05:18;;;;;;;17.60;13.30;;;;;;;;;;5074708;28;20078;-72
2024/01/06 04:07:44;;;;;;;25.13;15.63;;;;;;;;;;5074414;28;20469;-72
2024/01/06 04:10:10;;;;;;;22.45;14.25;;;;;;;;;;5074361;28;20123;-72
2024/01/06 04:12:38;;;;;;;20.17;13.40;;;;;;;;;;5074579;28;20083;-71
2024/01/06 04:15:04;;;;;;;19.77;13.63;;;;;;;;;;5074532;28;20190;-72
2024/01/06 04:17:30;;;;;;;22.73;13.80;;;;;;;;;;5075667;28;20044;-72
2024/01/06 04:19:56;;;;;;;19.52;13.80;;;;;;;;;;5074189;28;20040;-72
2024/01/06 04:22:22;;;;;;;19.13;13.52;;;;;;;;;;5074173;28;20040;-72
2024/01/06 04:24:48;;;;;;;20.80;13.77;;;;;;;;;;5075218;28;20489;-72
2024/01/06 04:27:14;;;;;;;17.52;13.40;;;;;;;;;;5074054;28;20072;-72
2024/01/06 04:29:40;;;;;;;22.00;12.23;;;;;;;;;;5073991;28;20048;-72
2024/01/06 04:32:07;;;;;;;20.05;13.18;;;;;;;;;;5075491;28;20044;-72
2024/01/06 04:34:33;;;;;;;15.73;11.38;;;;;;;;;;5073879;28;20532;-71
2024/01/06 04:36:59;;;;;;;13.65;10.80;;;;;;;;;;5073944;28;20040;-71
2024/01/06 04:39:25;;;;;;;14.93;10.90;;;;;;;;;;5073813;28;20382;-72
2024/01/06 04:41:51;;;;;;;17.67;11.95;;;;;;;;;;5075282;28;20062;-72
2024/01/06 04:44:20;;;;;;;17.92;12.40;;;;;;;;;;5075164;28;20041;-72
2024/01/06 04:46:46;;;;;;;17.13;11.80;;;;;;;;;;5075192;28;20047;-71
2024/01/06 04:49:12;;;;;;;20.67;12.20;;;;;;;;;;5073639;28;20044;-71
2024/01/06 04:51:38;;;;;;;19.20;12.93;;;;;;;;;;5075102;28;20086;-71
2024/01/06 04:54:04;;;;;;;21.27;11.43;;;;;;;;;;5073382;28;20418;-71
2024/01/06 04:56:30;;;;;;;19.88;12.23;;;;;;;;;;5073609;28;20557;-71
2024/01/06 04:58:57;;;;;;;15.63;10.30;;;;;;;;;;5073748;28;20120;-72
2024/01/06 05:01:24;;;;;;;19.98;12.00;;;;;;;;;;5073357;28;20079;-72
2024/01/06 05:03:49;;;;;;;19.65;12.50;;;;;;;;;;5074480;28;20041;-72
2024/01/06 05:06:15;;;;;;;17.80;12.00;;;;;;;;;;5073493;28;20047;-72
2024/01/06 05:08:44;;;;;;;15.65;11.75;;;;;;;;;;5074733;28;20044;-72
2024/01/06 05:11:10;;;;;;;17.85;11.68;;;;;;;;;;5074098;28;20115;-72
2024/01/06 05:13:37;;;;;;;22.15;12.63;;;;;;;;;;5073076;28;20119;-72
2024/01/06 05:16:03;;;;;;;20.52;12.25;;;;;;;;;;5073256;28;20098;-72
2024/01/06 05:18:29;;;;;;;21.45;13.20;;;;;;;;;;5074560;28;20039;-72
2024/01/06 05:20:55;;;;;;;21.98;12.43;;;;;;;;;;5074510;28;20036;-72
2024/01/06 05:23:21;;;;;;;18.80;12.50;;;;;;;;;;5074421;28;20064;-72
2024/01/06 05:25:47;;;;;;;20.27;12.77;;;;;;;;;;5072929;28;20083;-72
2024/01/06 05:28:13;;;;;;;17.52;11.07;;;;;;;;;;5072839;28;20070;-72
2024/01/06 05:30:39;;;;;;;17.83;12.10;;;;;;;;;;5074050;28;20066;-72
2024/01/06 05:33:05;;;;;;;16.85;10.18;;;;;;;;;;5072696;28;20036;-71
2024/01/06 05:35:31;;;;;;;19.30;11.68;;;;;;;;;;5072713;28;20090;-72
2024/01/06 05:37:57;;;;;;;17.48;11.73;;;;;;;;;;5072560;28;20141;-72
2024/01/06 05:40:23;;;;;;;18.23;11.18;;;;;;;;;;5073429;28;20036;-72
2024/01/06 05:42:52;;;;;;;13.98;11.18;;;;;;;;;;5073983;28;20091;-71
2024/01/06 05:45:18;;;;;;;17.23;12.43;;;;;;;;;;5072757;28;20142;-72
2024/01/06 05:47:44;;;;;;;16.95;11.50;;;;;;;;;;5072495;28;20197;-72
2024/01/06 05:50:10;;;;;;;12.45;9.95;;;;;;;;;;5072429;28;20036;-72
2024/01/06 05:52:36;;;;;;;15.30;11.38;;;;;;;;;;5072297;28;20045;-72
2024/01/06 05:55:02;;;;;;;14.45;11.57;;;;;;;;;;5072606;28;20057;-72
2024/01/06 05:57:28;;;;;;;14.13;10.38;;;;;;;;;;5073742;28;20080;-71
2024/01/06 05:59:54;;;;;;;14.52;11.18;;;;;;;;;;5072236;28;20059;-72
2024/01/06 06:02:20;;;;;;;15.43;11.45;;;;;;;;;;5072134;28;20040;-72
2024/01/06 06:04:46;;;;;;;14.00;10.75;;;;;;;;;;5073632;28;20090;-72
2024/01/06 06:07:12;;;;;;;16.05;11.70;;;;;;;;;;5072404;28;20048;-72
2024/01/06 06:09:39;;;;;;;15.98;12.13;;;;;;;;;;5072122;28;20497;-72
2024/01/06 06:12:05;;;;;;;15.85;11.18;;;;;;;;;;5072111;28;20053;-72
2024/01/06 06:14:31;;;;;;;14.85;10.77;;;;;;;;;;5073509;28;20123;-72
2024/01/06 06:16:57;;;;;;;16.75;11.77;;;;;;;;;;5071954;28;20040;-73
2024/01/06 06:19:23;;;;;;;16.13;11.35;;;;;;;;;;5073565;28;20047;-72
2024/01/06 06:21:49;;;;;;;17.02;11.38;;;;;;;;;;5073519;28;20039;-72
2024/01/06 06:24:15;;;;;;;15.82;11.65;;;;;;;;;;5072536;28;20485;-71
2024/01/06 06:26:41;;;;;;;16.02;11.40;;;;;;;;;;5071880;28;20137;-71
2024/01/06 06:29:07;;;;;;;14.65;11.57;;;;;;;;;;5073460;28;20075;-72
2024/01/06 06:31:34;;;;;;;15.70;11.73;;;;;;;;;;5072212;28;20040;-72
2024/01/06 06:33:59;;;;;;;18.42;12.65;;;;;;;;;;5071789;28;20547;-72
2024/01/06 06:36:25;;;;;;;16.88;11.20;;;;;;;;;;5071729;28;20045;-72
2024/01/06 06:38:51;;;;;;;17.27;12.13;;;;;;;;;;5071818;28;20058;-72
2024/01/06 06:41:19;;;;;;;17.10;11.57;;;;;;;;;;5072129;28;20041;-72
2024/01/06 06:43:45;;;;;;;14.73;11.70;;;;;;;;;;5073184;28;20410;-72
2024/01/06 06:46:11;;;;;;;15.00;11.02;;;;;;;;;;5073234;28;20040;-72
2024/01/06 06:48:37;;;;;;;14.75;10.40;;;;;;;;;;5071675;28;20055;-72
2024/01/06 06:51:04;;;;;;;15.80;10.98;;;;;;;;;;5071662;28;20497;-71
2024/01/06 06:53:30;;;;;;;16.20;11.45;;;;;;;;;;5071634;28;20050;-71
2024/01/06 06:55:56;;;;;;;14.27;11.20;;;;;;;;;;5071645;28;20119;-72
2024/01/06 06:58:22;;;;;;;15.07;10.95;;;;;;;;;;5073056;28;20036;-71
2024/01/06 07:00:48;;;;;;;14.60;11.02;;;;;;;;;;5071591;28;20040;-71
2024/01/06 07:03:14;;;;;;;13.75;10.80;;;;;;;;;;5071407;28;20037;-72
2024/01/06 07:05:40;;;;;;;13.63;10.35;;;;;;;;;;5072738;28;20439;-71
2024/01/06 07:08:06;;;;;;;14.88;10.73;;;;;;;;;;5071781;28;20036;-72
2024/01/06 07:10:32;;;;;;;14.20;10.75;;;;;;;;;;5071484;28;20486;-72
2024/01/06 07:12:58;;;;;;;13.52;11.15;;;;;;;;;;5071406;28;20048;-71
2024/01/06 07:15:24;;;;;;;14.32;10.65;;;;;;;;;;5073005;28;20131;-71
2024/01/06 07:17:50;;;;;;;12.45;10.63;;;;;;;;;;5072876;28;20037;-71
2024/01/06 07:20:16;;;;;;;13.65;10.40;;;;;;;;;;5071442;28;20119;-71
2024/01/06 07:22:42;;;;;;;14.75;11.52;;;;;;;;;;5072836;28;20124;-71
2024/01/06 07:25:08;;;;;;;11.30;9.70;;;;;;;;;;5072552;28;20076;-72
2024/01/06 07:27:34;;;;;;;14.20;10.13;;;;;;;;;;5071355;28;20044;-72
2024/01/06 07:30:00;;;;;;;12.68;10.00;;;;;;;;;;5072862;28;20042;-72
2024/01/06 07:32:26;;;;;;;11.68;9.95;;;;;;;;;;5072523;28;20467;-72
2024/01/06 07:34:52;;;;;;;13.02;10.27;;;;;;;;;;5072333;28;20166;-72
2024/01/06 07:37:18;;;;;;;14.18;10.07;;;;;;;;;;5076458;28;20044;-72
2024/01/06 07:39:44;;;;;;;13.55;10.23;;;;;;;;;;5075180;28;20036;-72
2024/01/06 07:42:10;;;;;;;12.63;10.13;;;;;;;;;;5074905;28;20489;-72
2024/01/06 07:44:36;;;;;;;11.43;9.65;;;;;;;;;;5076302;28;20043;-72
2024/01/06 07:47:05;;;;;;;13.38;10.20;;;;;;;;;;5074790;28;20040;-71
2024/01/06 07:49:31;;;;;;;13.38;10.02;;;;;;;;;;5075106;28;20044;-72
2024/01/06 07:51:57;;;;;;;12.15;9.60;;;;;;;;;;5074721;28;20052;-72
2024/01/06 07:54:23;;;;;;;12.32;9.43;;;;;;;;;;5074597;28;20048;-71
2024/01/06 07:56:49;;;;;;;14.00;10.93;;;;;;;;;;5074750;28;20097;-71
2024/01/06 07:59:15;;;;;;;10.40;8.98;;;;;;;;;;5074569;28;20040;-72
2024/01/06 08:01:42;;;;;;;13.52;10.15;;;;;;;;;;5074753;28;20040;-72
2024/01/06 08:04:09;;;;;;;12.98;9.90;;;;;;;;;;5074330;28;20041;-71
2024/01/06 08:06:35;;;;;;;14.68;11.45;;;;;;;;;;5074776;28;20076;-72
2024/01/06 08:09:01;;;;;;;12.23;10.23;;;;;;;;;;5074684;28;20114;-72
2024/01/06 08:11:27;;;;;;;13.02;10.98;;;;;;;;;;5075912;28;20076;-72
2024/01/06 08:13:53;;;;;;;17.90;11.70;;;;;;;;;;5074261;28;20044;-71
2024/01/06 08:16:19;;;;;;;13.35;10.77;;;;;;;;;;5075699;28;20040;-71
2024/01/06 08:18:45;;;;;;;14.15;10.50;;;;;;;;;;5074208;28;20507;-71
2024/01/06 08:21:12;;;;;;;20.58;11.18;;;;;;;;;;5075722;28;20071;-71
2024/01/06 08:23:38;;;;;;;17.85;11.13;;;;;;;;;;5074068;28;20040;-71
2024/01/06 08:26:05;;;;;;;14.02;10.80;;;;;;;;;;5074085;28;20044;-72
2024/01/06 08:28:31;;;;;;;12.80;10.82;;;;;;;;;;5074046;28;20102;-71
2024/01/06 08:30:57;;;;;;;14.48;11.00;;;;;;;;;;5074195;28;20093;-72
2024/01/06 08:33:23;;;;;;;12.50;10.43;;;;;;;;;;5073897;28;20040;-71
2024/01/06 08:35:49;;;;;;;12.90;10.77;;;;;;;;;;5074182;28;20055;-71
2024/01/06 08:38:15;;;;;;;13.32;10.38;;;;;;;;;;5075265;28;20500;-72
2024/01/06 08:40:41;;;;;;;15.07;11.15;;;;;;;;;;5074987;28;20413;-72
2024/01/06 08:43:07;;;;;;;12.32;9.85;;;;;;;;;;5075241;28;20040;-72
2024/01/06 08:45:33;;;;;;;11.73;10.25;;;;;;;;;;5074721;28;20047;-71
2024/01/06 08:47:59;;;;;;;12.40;9.88;;;;;;;;;;5072973;28;20083;-71
2024/01/06 08:50:25;;;;;;;11.23;9.50;;;;;;;;;;5075196;28;20041;-71
2024/01/06 08:52:51;;;;;;;11.00;9.52;;;;;;;;;;5073789;28;20062;-71
2024/01/06 08:55:17;;;;;;;12.63;10.23;;;;;;;;;;5073529;28;20580;-73
2024/01/06 08:57:43;;;;;;;11.82;10.50;;;;;;;;;;5073487;28;20041;-71
2024/01/06 09:00:10;;;;;;;12.43;10.02;;;;;;;;;;5073445;28;20618;-71
2024/01/06 09:02:36;;;;;;;13.52;10.50;;;;;;;;;;5073124;28;20475;-71
2024/01/06 09:05:02;;;;;;;14.23;10.85;;;;;;;;;;5074865;28;20120;-71
2024/01/06 09:07:28;;;;;;;12.30;10.52;;;;;;;;;;5073320;28;20044;-72
2024/01/06 09:09:54;;;;;;;12.50;9.65;;;;;;;;;;5074802;28;20078;-72
2024/01/06 09:12:21;;;;;;;12.27;9.65;;;;;;;;;;5073457;28;20059;-72
2024/01/06 09:14:47;;;;;;;12.18;10.10;;;;;;;;;;5073073;28;20053;-71
2024/01/06 09:17:13;;;;;;;12.02;10.20;;;;;;;;;;5073202;28;20079;-72
2024/01/06 09:19:39;;;;;;;12.70;10.15;;;;;;;;;;5073375;28;20055;-73
2024/01/06 09:22:05;;;;;;;13.05;10.02;;;;;;;;;;5073215;28;20040;-72
2024/01/06 09:24:33;;;;;;;12.45;10.30;;;;;;;;;;5072962;28;20087;-71
2024/01/06 09:26:59;;;;;;;12.30;10.20;;;;;;;;;;5073239;28;20139;-71
2024/01/06 09:29:25;;;;;;;12.88;10.45;;;;;;;;;;5073126;28;20527;-71
2024/01/06 09:31:52;;;;;;;13.07;10.07;;;;;;;;;;5074401;28;20036;-72
2024/01/06 09:34:18;;;;;;;11.23;9.95;;;;;;;;;;5074367;28;20080;-71
2024/01/06 09:36:44;;;;;;;12.60;10.32;;;;;;;;;;5072599;28;20126;-71
2024/01/06 09:39:10;;;;;;;12.45;9.90;;;;;;;;;;5074176;28;20040;-72
2024/01/06 09:41:36;;;;;;;14.40;10.88;;;;;;;;;;5072653;28;20052;-72
2024/01/06 09:44:02;;;;;;;12.57;10.13;;;;;;;;;;5072497;28;20405;-71
2024/01/06 09:46:31;;;;;;;12.38;10.15;;;;;;;;;;5072516;28;20124;-71
2024/01/06 09:48:58;;;;;;;13.98;10.68;;;;;;;;;;5072713;28;20439;-71
2024/01/06 09:51:25;;;;;;;11.23;9.77;;;;;;;;;;5072387;28;20058;-71
2024/01/06 09:53:58;;;;;;;13.95;10.75;;;;;;;;;;5073821;28;20040;-71
2024/01/06 09:56:24;;;;;;;;;;;;;;;;;;5074194;28;20075;-71
2024/01/06 09:58:51;;;;;;;11.43;9.73;;;;;;;;;;5073724;28;19963;-72
2024/01/06 10:01:18;;;;;;;13.63;10.80;;;;;;;;;;5073812;28;20044;-72
2024/01/06 10:03:47;;;;;;;15.18;12.05;;;;;;;;;;5072051;28;20040;-71
2024/01/06 10:06:14;;;;;;;14.80;11.02;;;;;;;;;;5072198;28;20041;-71
2024/01/06 10:08:40;;;;;;;12.32;10.25;;;;;;;;;;5073396;28;20489;-71
2024/01/06 10:11:08;;;;;;;13.25;10.93;;;;;;;;;;5072158;28;20123;-72
2024/01/06 10:13:34;;;;;;;12.00;10.13;;;;;;;;;;5072042;28;20489;-71
2024/01/06 10:16:00;;;;;;;14.18;11.15;;;;;;;;;;5072069;28;20070;-71
2024/01/06 10:18:29;;;;;;;13.95;10.70;;;;;;;;;;5073516;28;20169;-71
2024/01/06 10:20:55;;;;;;;11.95;9.73;;;;;;;;;;5072005;28;20040;-71
2024/01/06 10:23:25;;;;;;;12.57;10.20;;;;;;;;;;5072152;28;20052;-71
2024/01/06 10:25:54;;;;;;;12.55;9.65;;;;;;;;;;5073471;28;20045;-71
2024/01/06 10:28:22;;;;;;;11.80;10.00;;;;;;;;;;5073429;28;20111;-71
2024/01/06 10:30:48;;;;;;;11.93;10.43;;;;;;;;;;5072581;28;20054;-73
2024/01/06 10:33:14;;;;;;;12.25;10.52;;;;;;;;;;5072418;28;20048;-72
2024/01/06 10:35:41;;;;;;;12.07;9.93;;;;;;;;;;5073383;28;20481;-72
2024/01/06 10:38:07;;;;;;;13.27;10.73;;;;;;;;;;5071830;28;20044;-72
2024/01/06 10:40:33;;;;;;;11.73;9.68;;;;;;;;;;5072039;28;20044;-72
2024/01/06 10:43:00;;;;;;;12.77;10.95;;;;;;;;;;5071708;28;20040;-71
2024/01/06 10:45:28;;;;;;;12.85;10.68;;;;;;;;;;5072042;28;20055;-71
2024/01/06 10:47:55;;;;;;;14.52;11.23;;;;;;;;;;5073229;28;20041;-71
2024/01/06 10:50:22;;;;;;;15.68;11.00;;;;;;;;;;5073536;28;20128;-71
2024/01/06 10:52:48;;;;;;;14.88;12.05;;;;;;;;;;5071639;28;20051;-71
2024/01/06 10:55:20;;;;;;;14.85;11.55;;;;;;;;;;5055177;28;20037;-71
2024/01/06 10:57:47;;;;;;;13.40;10.68;;;;;;;;;;5073092;28;20045;-71
2024/01/06 11:00:13;;;;;;;13.77;11.05;;;;;;;;;;5073641;28;20082;-72
2024/01/06 11:02:39;;;;;;;14.55;11.38;;;;;;;;;;5072862;28;20536;-71
2024/01/06 11:05:10;;;;;;;12.68;10.98;;;;;;;;;;5073152;28;20040;-72
2024/01/06 11:07:36;;;;;;;14.45;11.75;;;;;;;;;;5072804;28;20453;-71
2024/01/06 11:10:09;;;;;;;12.52;11.23;;;;;;;;;;5074569;28;20063;-71
2024/01/06 11:12:35;;;;;;;13.55;10.63;;;;;;;;;;5076304;28;20051;-71
2024/01/06 11:15:01;;;;;;;11.20;9.48;;;;;;;;;;5075450;28;20037;-71
2024/01/06 11:17:46;;;;;;;12.20;10.02;;;;;;;;;;5075343;28;20040;-71
2024/01/06 11:20:12;;;;;;;11.40;9.90;;;;;;;;;;5075614;28;20557;-72
2024/01/06 11:22:39;;;;;;;11.25;9.50;;;;;;;;;;5075226;28;20170;-71
2024/01/06 11:25:09;;;;;;;11.85;9.95;;;;;;;;;;5075171;28;20412;-72
2024/01/06 11:27:36;;;;;;;11.35;9.95;;;;;;;;;;5075169;28;20408;-72
2024/01/06 11:30:05;;;;;;;12.35;10.30;;;;;;;;;;5075138;28;20497;-72
2024/01/06 11:32:38;;;;;;;13.43;10.82;;;;;;;;;;5075114;28;20048;-73
2024/01/06 11:35:18;;;;;;;12.57;10.48;;;;;;;;;;5075363;28;20557;-72
2024/01/06 11:37:45;;;;;;;14.48;11.23;;;;;;;;;;5074901;28;20045;-72
2024/01/06 11:40:26;;;;;;;14.63;11.80;;;;;;;;;;5076467;28;20112;-72
2024/01/06 11:42:57;;;;;;;13.32;10.30;;;;;;;;;;5076039;28;20405;-71
2024/01/06 11:45:25;;;;;;;13.40;10.02;;;;;;;;;;5074840;28;20040;-72
2024/01/06 11:47:54;;;;;;;12.23;10.07;;;;;;;;;;5075060;28;20051;-72
2024/01/06 11:50:21;;;;;;;11.70;9.60;;;;;;;;;;5075960;28;20382;-72
2024/01/06 11:52:47;;;;;;;12.32;9.35;;;;;;;;;;5077009;28;20135;-72
2024/01/06 11:55:13;;;;;;;10.63;8.80;;;;;;;;;;5074863;28;20541;-72
2024/01/06 11:57:39;;;;;;;10.90;9.20;;;;;;;;;;5074739;28;20127;-72
2024/01/06 12:00:06;;;;;;;12.20;9.60;;;;;;;;;;5074606;28;20128;-72
2024/01/06 12:02:32;;;;;;;12.18;10.13;;;;;;;;;;5074619;28;20501;-72
2024/01/06 12:04:58;;;;;;;10.05;8.35;;;;;;;;;;5074614;28;20045;-72
2024/01/06 12:07:24;;;;;;;11.23;9.23;;;;;;;;;;5074713;28;20079;-71
2024/01/06 12:09:52;;;;;;;10.27;8.80;;;;;;;;;;5074924;28;20092;-71
2024/01/06 12:12:19;;;;;;;12.05;9.43;;;;;;;;;;5075901;28;20040;-71
2024/01/06 12:14:48;;;;;;;12.52;9.57;;;;;;;;;;5074385;28;20161;-72
2024/01/06 12:17:14;;;;;;;10.65;8.93;;;;;;;;;;5075435;28;20044;-72
2024/01/06 12:19:44;;;;;;;12.73;10.45;;;;;;;;;;5075121;28;20045;-71
2024/01/06 12:22:15;;;;;;;12.82;10.05;;;;;;;;;;5074428;28;20040;-72
2024/01/06 12:24:45;;;;;;;11.40;9.63;;;;;;;;;;5074079;28;20040;-72
2024/01/06 12:27:11;;;;;;;12.27;10.48;;;;;;;;;;5074034;28;20045;-72
2024/01/06 12:29:43;;;;;;;12.75;10.30;;;;;;;;;;5074171;28;20440;-72
2024/01/06 12:32:10;;;;;;;13.10;10.33;;;;;;;;;;5074279;28;20076;-72
2024/01/06 12:34:36;;;;;;;13.40;11.00;;;;;;;;;;5075456;28;20047;-72
2024/01/06 12:37:03;;;;;;;17.65;12.20;;;;;;;;;;5073844;28;20501;-72
2024/01/06 12:39:29;;;;;;;13.07;10.75;;;;;;;;;;5073856;28;20047;-72
2024/01/06 12:41:55;;;;;;;11.98;10.40;;;;;;;;;;5073852;28;20075;-72
2024/01/06 12:44:21;;;;;;;13.43;10.20;;;;;;;;;;5075208;28;20036;-71
2024/01/06 12:46:48;;;;;;;14.95;11.32;;;;;;;;;;5074021;28;20044;-72
2024/01/06 12:49:14;;;;;;;13.40;10.75;;;;;;;;;;5074924;28;20446;-72
2024/01/06 12:51:40;;;;;;;12.82;10.48;;;;;;;;;;5075222;28;20076;-72
2024/01/06 12:54:06;;;;;;;13.95;9.88;;;;;;;;;;5073882;28;20041;-72
2024/01/06 12:56:32;;;;;;;14.35;11.23;;;;;;;;;;5073463;28;20048;-72
2024/01/06 12:58:58;;;;;;;13.32;10.90;;;;;;;;;;5073866;28;20048;-73
2024/01/06 13:01:24;;;;;;;13.02;11.23;;;;;;;;;;5074715;28;20477;-73
2024/01/06 13:03:51;;;;;;;15.65;12.70;;;;;;;;;;5074444;28;20531;-73
2024/01/06 13:06:18;;;;;;;16.38;13.20;;;;;;;;;;5056682;28;20542;-73
2024/01/06 13:08:45;;;;;;;18.08;13.90;;;;;;;;;;5074916;28;20055;-73
2024/01/06 13:11:11;;;;;;;17.63;13.95;;;;;;;;;;5074792;28;20079;-74
2024/01/06 13:13:37;;;;;;;14.95;11.82;;;;;;;;;;5073125;28;20040;-74
2024/01/06 13:16:05;;;;;;;14.80;13.18;;;;;;;;;;5073485;28;20041;-73
2024/01/06 13:18:31;;;;;;;23.65;21.10;;;;;;;;;;5073673;28;20045;-73
2024/01/06 13:20:57;;;;;;;16.85;12.30;;;;;;;;;;5073327;28;20040;-73
2024/01/06 13:23:23;;;;;;;20.35;16.85;;;;;;;;;;5074439;28;20043;-73
2024/01/06 13:25:49;;;;;;;15.43;13.38;;;;;;;;;;5074475;28;20041;-73
2024/01/06 13:28:15;;;;;;;14.57;11.93;;;;;;;;;;5072872;28;20127;-73
2024/01/06 13:30:41;;;;;;;14.00;11.45;;;;;;;;;;5074351;28;20079;-73
2024/01/06 13:33:09;;;;;;;19.20;16.42;;;;;;;;;;5072284;28;20041;-73
2024/01/06 13:35:36;;;;;;;12.80;10.27;;;;;;;;;;5073055;28;20139;-73
2024/01/06 13:38:04;;;;;;;14.77;11.30;;;;;;;;;;5073825;28;20460;-73
2024/01/06 13:40:30;;;;;;;13.10;11.40;;;;;;;;;;5072921;28;20044;-74
2024/01/06 13:42:56;;;;;;;14.48;10.93;;;;;;;;;;5072928;28;20094;-72
2024/01/06 13:45:22;;;;;;;12.55;10.23;;;;;;;;;;5072870;28;20047;-73
2024/01/06 13:47:48;;;;;;;12.20;9.88;;;;;;;;;;5074115;28;20072;-73
2024/01/06 13:50:16;;;;;;;12.55;10.00;;;;;;;;;;5072475;28;20071;-72
2024/01/06 13:52:42;;;;;;;11.48;9.70;;;;;;;;;;5072348;28;20496;-72
2024/01/06 13:55:10;;;;;;;13.27;11.13;;;;;;;;;;5072562;28;20574;-73
2024/01/06 13:57:41;;;;;;;13.15;10.57;;;;;;;;;;5074546;28;20044;-74
2024/01/06 14:00:09;;;;;;;14.10;11.60;;;;;;;;;;5056151;28;20036;-73
2024/01/06 14:02:35;;;;;;;12.23;10.48;;;;;;;;;;5072092;28;20033;-72
2024/01/06 14:05:01;;;;;;;13.10;11.38;;;;;;;;;;5072552;28;20119;-72
2024/01/06 14:07:27;;;;;;;15.50;13.10;;;;;;;;;;5072223;28;20044;-74
2024/01/06 14:09:53;;;;;;;13.60;10.98;;;;;;;;;;5073726;28;20125;-74
2024/01/06 14:12:19;;;;;;;13.27;11.10;;;;;;;;;;5073705;28;20044;-74
2024/01/06 14:14:46;;;;;;;15.68;14.02;;;;;;;;;;5055417;28;20090;-74